createdAt,value
2019-02-08T00:01:31.233Z,38.83
2019-02-08T00:04:02.832Z,29.27
2019-02-08T00:06:35.464Z,37.83
2019-02-08T00:09:08.383Z,37.97
2019-02-08T00:11:40.392Z,38.17
2019-02-08T00:14:12.243Z,37.43
2019-02-08T00:16:44.166Z,39.80
2019-02-08T00:19:15.936Z,34.00
2019-02-08T00:21:47.689Z,35.67
2019-02-08T00:24:19.515Z,28.97
2019-02-08T00:26:51.515Z,34.63
2019-02-08T00:29:23.918Z,29.87
2019-02-08T00:31:55.581Z,34.50
2019-02-08T00:34:27.179Z,32.73
2019-02-08T00:36:58.904Z,38.27
2019-02-08T00:39:30.899Z,30.80
2019-02-08T00:42:02.484Z,34.77
2019-02-08T00:44:34.072Z,34.57
2019-02-08T00:47:06.098Z,30.30
2019-02-08T00:49:37.693Z,27.60
2019-02-08T00:52:09.294Z,37.73
2019-02-08T00:54:41.022Z,26.97
2019-02-08T00:57:12.616Z,31.30
2019-02-08T00:59:44.790Z,29.03
2019-02-08T01:02:16.419Z,32.43
2019-02-08T01:04:48.097Z,33.20
2019-02-08T01:07:19.831Z,36.60
2019-02-08T01:09:51.501Z,29.90
2019-02-08T01:12:24.159Z,28.87
2019-02-08T01:14:56.224Z,33.83
2019-02-08T01:17:27.879Z,32.80
2019-02-08T01:19:59.759Z,30.47
2019-02-08T01:22:32.417Z,33.70
2019-02-08T01:25:05.568Z,29.10
2019-02-08T01:27:37.394Z,31.77
2019-02-08T01:30:21.811Z,26.73
2019-02-08T01:32:53.418Z,32.33
2019-02-08T01:35:25.234Z,30.53
2019-02-08T01:37:58.047Z,25.47
2019-02-08T01:40:33.634Z,31.30
2019-02-08T01:43:06.545Z,25.63
2019-02-08T01:45:38.438Z,29.40
2019-02-08T01:48:10.101Z,28.73
2019-02-08T01:50:42.245Z,28.07
2019-02-08T01:53:13.977Z,30.90
2019-02-08T01:55:45.660Z,28.10
2019-02-08T01:58:17.403Z,34.43
2019-02-08T02:00:49.071Z,29.37
2019-02-08T02:03:20.784Z,29.57
2019-02-08T02:05:52.949Z,25.17
2019-02-08T02:08:24.533Z,27.93
2019-02-08T02:10:56.110Z,31.57
2019-02-08T02:13:27.780Z,25.93
2019-02-08T02:15:59.468Z,35.37
2019-02-08T02:18:31.182Z,31.13
2019-02-08T02:21:03.332Z,31.17
2019-02-08T02:23:34.920Z,33.60
2019-02-08T02:26:06.507Z,39.07
2019-02-08T02:28:38.178Z,29.83
2019-02-08T02:31:10.884Z,26.47
2019-02-08T02:33:42.501Z,31.43
2019-02-08T02:36:14.082Z,29.80
2019-02-08T02:38:45.753Z,25.80
2019-02-08T02:41:17.380Z,30.27
2019-02-08T02:43:48.950Z,23.40
2019-02-08T02:46:20.563Z,25.03
2019-02-08T02:48:52.237Z,28.97
2019-02-08T02:51:23.894Z,25.10
2019-02-08T02:53:55.485Z,29.53
2019-02-08T02:56:27.091Z,26.67
2019-02-08T02:58:58.735Z,28.43
2019-02-08T03:01:30.497Z,26.43
2019-02-08T03:04:02.095Z,26.17
2019-02-08T03:06:33.692Z,27.03
2019-02-08T03:09:07.460Z,32.50
2019-02-08T03:11:40.106Z,30.50
2019-02-08T03:14:11.768Z,26.13
2019-02-08T03:16:43.413Z,20.47
2019-02-08T03:19:15.026Z,21.90
2019-02-08T03:21:46.931Z,25.73
2019-02-08T03:24:18.582Z,24.23
2019-02-08T03:26:50.269Z,26.73
2019-02-08T03:29:21.945Z,27.43
2019-02-08T03:31:53.610Z,28.07
2019-02-08T03:34:25.209Z,27.10
2019-02-08T03:36:56.805Z,28.90
2019-02-08T03:39:28.382Z,23.23
2019-02-08T03:42:00.050Z,24.80
2019-02-08T03:44:31.728Z,28.47
2019-02-08T03:47:03.401Z,27.57
2019-02-08T03:49:35.111Z,25.93
2019-02-08T03:52:06.746Z,27.93
2019-02-08T03:54:38.311Z,25.80
2019-02-08T03:57:09.899Z,26.47
2019-02-08T03:59:41.502Z,23.70
2019-02-08T04:02:13.347Z,27.90
2019-02-08T04:04:45.007Z,29.60
2019-02-08T04:07:16.603Z,26.97
2019-02-08T04:09:48.341Z,27.97
2019-02-08T04:12:19.935Z,26.83
2019-02-08T04:14:51.549Z,27.83
2019-02-08T04:17:23.156Z,26.43
2019-02-08T04:19:54.837Z,36.83
2019-02-08T04:22:26.493Z,27.40
2019-02-08T04:24:58.207Z,22.17
2019-02-08T04:27:42.299Z,28.77
2019-02-08T04:30:27.161Z,25.63
2019-02-08T04:33:00.333Z,27.03
2019-02-08T04:35:31.942Z,30.37
2019-02-08T04:38:03.621Z,32.03
2019-02-08T04:40:35.338Z,27.50
2019-02-08T04:43:06.931Z,25.33
2019-02-08T04:45:38.854Z,28.60
2019-02-08T04:48:10.537Z,24.23
2019-02-08T04:50:42.110Z,27.70
2019-02-08T04:53:13.783Z,24.67
2019-02-08T04:55:45.477Z,23.93
2019-02-08T04:58:17.092Z,23.23
2019-02-08T05:00:48.898Z,26.70
2019-02-08T05:03:20.490Z,24.37
2019-02-08T05:05:52.105Z,24.27
2019-02-08T05:08:23.971Z,25.27
2019-02-08T05:10:55.688Z,25.73
2019-02-08T05:13:27.292Z,22.90
2019-02-08T05:15:59.110Z,26.17
2019-02-08T05:18:32.073Z,29.90
2019-02-08T05:21:07.190Z,33.30
2019-02-08T05:23:39.158Z,29.73
2019-02-08T05:26:10.751Z,30.17
2019-02-08T05:28:43.967Z,31.40
2019-02-08T05:31:15.591Z,28.83
2019-02-08T05:33:47.190Z,24.33
2019-02-08T05:36:19.265Z,33.43
2019-02-08T05:38:50.930Z,34.63
2019-02-08T05:41:22.583Z,34.23
2019-02-08T05:43:54.169Z,34.90
2019-02-08T05:46:25.942Z,27.27
2019-02-08T05:48:57.547Z,31.87
2019-02-08T05:51:29.595Z,31.40
2019-02-08T05:54:01.263Z,30.53
2019-02-08T05:56:33.027Z,30.67
2019-02-08T05:59:04.988Z,29.63
2019-02-08T06:01:36.746Z,30.63
2019-02-08T06:04:08.570Z,38.20
2019-02-08T06:06:40.518Z,33.40
2019-02-08T06:09:12.107Z,34.77
2019-02-08T06:11:43.685Z,35.33
2019-02-08T06:14:15.804Z,33.83
2019-02-08T06:16:47.599Z,31.43
2019-02-08T06:19:19.194Z,38.23
2019-02-08T06:21:50.849Z,33.53
2019-02-08T06:24:22.446Z,28.50
2019-02-08T06:26:54.136Z,31.57
2019-02-08T06:29:25.873Z,31.13
2019-02-08T06:31:57.735Z,30.63
2019-02-08T06:34:29.363Z,30.63
2019-02-08T06:37:02.651Z,36.37
2019-02-08T06:39:35.895Z,29.00
2019-02-08T06:42:07.477Z,29.13
2019-02-08T06:44:39.260Z,28.00
2019-02-08T06:47:11.127Z,26.23
2019-02-08T06:49:42.798Z,31.33
2019-02-08T06:52:14.393Z,26.47
2019-02-08T06:54:46.200Z,27.60
2019-02-08T06:57:19.436Z,31.80
2019-02-08T06:59:52.694Z,25.40
2019-02-08T07:02:26.362Z,30.10
2019-02-08T07:05:15.766Z,33.67
2019-02-08T07:07:55.206Z,39.33
2019-02-08T07:10:28.510Z,35.70
2019-02-08T07:13:14.696Z,35.47
2019-02-08T07:15:50.654Z,38.60
2019-02-08T07:18:23.891Z,36.03
2019-02-08T07:21:03.214Z,34.37
2019-02-08T07:23:39.485Z,37.93
2019-02-08T07:26:19.287Z,37.63
2019-02-08T07:29:08.223Z,34.77
2019-02-08T07:31:41.832Z,39.87
2019-02-08T07:34:31.599Z,37.27
2019-02-08T07:37:05.022Z,29.40
2019-02-08T07:39:55.848Z,40.47
2019-02-08T07:42:30.167Z,33.20
2019-02-08T07:45:09.598Z,34.10
2019-02-08T07:47:44.407Z,51.00
2019-02-08T07:50:21.879Z,34.47
2019-02-08T07:53:15.621Z,34.80
2019-02-08T07:55:58.361Z,38.00
2019-02-08T07:58:48.308Z,31.60
2019-02-08T08:01:27.521Z,34.33
2019-02-08T08:04:03.625Z,32.40
2019-02-08T08:06:36.820Z,43.80
2019-02-08T08:09:26.419Z,35.03
2019-02-08T08:11:59.672Z,36.57
2019-02-08T08:14:49.027Z,38.20
2019-02-08T08:17:33.238Z,29.53
2019-02-08T08:20:16.457Z,33.97
2019-02-08T08:23:09.263Z,40.67
2019-02-08T08:25:58.628Z,35.53
2019-02-08T08:28:48.195Z,36.73
2019-02-08T08:31:24.243Z,39.00
2019-02-08T08:34:12.445Z,26.07
2019-02-08T08:37:03.803Z,36.53
2019-02-08T08:39:55.274Z,37.50
2019-02-08T08:42:37.497Z,43.47
2019-02-08T08:45:20.012Z,44.03
2019-02-08T08:48:23.205Z,28.23
2019-02-08T08:51:09.372Z,42.77
2019-02-08T08:54:05.428Z,38.43
2019-02-08T08:57:00.900Z,32.23
2019-02-08T08:59:42.724Z,31.60
2019-02-08T09:02:46.007Z,41.27
2019-02-08T09:05:49.776Z,34.53
2019-02-08T09:08:38.554Z,34.77
2019-02-08T09:11:42.060Z,39.83
2019-02-08T09:14:21.292Z,40.47
2019-02-08T09:17:23.056Z,35.87
2019-02-08T09:20:34.238Z,27.97
2019-02-08T09:23:37.421Z,33.60
2019-02-08T09:26:22.750Z,31.77
2019-02-08T09:29:13.832Z,32.53
2019-02-08T09:32:36.039Z,36.20
2019-02-08T09:35:29.528Z,37.40
2019-02-08T09:38:48.215Z,34.07
2019-02-08T09:41:50.485Z,36.67
2019-02-08T09:45:03.578Z,45.20
2019-02-08T09:48:10.043Z,33.83
2019-02-08T09:50:55.551Z,37.47
2019-02-08T09:53:54.932Z,38.47
2019-02-08T09:56:46.405Z,26.27
2019-02-08T09:59:40.530Z,35.07
2019-02-08T10:02:28.404Z,24.33
2019-02-08T10:05:10.438Z,35.07
2019-02-08T10:08:09.223Z,28.60
2019-02-08T10:11:26.678Z,26.20
2019-02-08T10:14:21.004Z,31.80
2019-02-08T10:17:39.821Z,25.93
2019-02-08T10:20:49.475Z,26.97
2019-02-08T10:23:59.297Z,33.10
2019-02-08T10:27:24.439Z,24.93
2019-02-08T10:30:46.619Z,30.27
2019-02-08T10:33:52.435Z,30.80
2019-02-08T10:36:51.304Z,32.53
2019-02-08T10:39:48.773Z,33.57
2019-02-08T10:42:53.684Z,32.30
2019-02-08T10:45:58.348Z,30.73
2019-02-08T10:48:54.661Z,31.47
2019-02-08T10:52:00.077Z,34.77
2019-02-08T10:55:13.366Z,30.57
2019-02-08T10:58:23.768Z,25.90
2019-02-08T11:01:32.928Z,24.07
2019-02-08T11:04:33.525Z,25.60
2019-02-08T11:07:43.513Z,29.80
2019-02-08T11:10:51.476Z,30.30
2019-02-08T11:14:10.585Z,26.37
2019-02-08T11:17:40.546Z,29.10
2019-02-08T11:20:12.231Z,25.37
2019-02-08T11:22:43.982Z,26.67
2019-02-08T11:25:15.550Z,25.90
2019-02-08T11:27:48.020Z,29.00
2019-02-08T11:30:19.692Z,66.37
2019-02-08T11:32:51.293Z,49.03
2019-02-08T11:35:23.381Z,30.10
2019-02-08T11:37:55.588Z,21.17
2019-02-08T11:40:27.428Z,22.07
2019-02-08T11:42:59.020Z,19.87
2019-02-08T11:45:30.654Z,20.90
2019-02-08T11:48:02.249Z,21.33
2019-02-08T11:50:34.907Z,18.77
2019-02-08T11:53:06.979Z,21.80
2019-02-08T11:55:38.612Z,22.73
2019-02-08T11:58:10.210Z,24.67
2019-02-08T12:00:43.439Z,20.90
2019-02-08T12:03:15.021Z,18.33
2019-02-08T12:05:46.782Z,26.10
2019-02-08T12:08:18.527Z,24.17
2019-02-08T12:10:50.793Z,25.47
2019-02-08T12:13:22.464Z,18.43
2019-02-08T12:15:54.195Z,21.07
2019-02-08T12:18:25.940Z,20.83
2019-02-08T12:20:57.528Z,20.37
2019-02-08T12:23:29.106Z,21.33
2019-02-08T12:26:00.696Z,21.47
2019-02-08T12:28:35.086Z,20.40
2019-02-08T12:31:10.619Z,14.80
2019-02-08T12:33:43.627Z,17.40
2019-02-08T12:36:15.387Z,17.57
2019-02-08T12:38:47.456Z,19.57
2019-02-08T12:41:19.142Z,19.93
2019-02-08T12:43:51.387Z,23.67
2019-02-08T12:46:23.030Z,15.23
2019-02-08T12:48:54.674Z,23.17
2019-02-08T12:51:26.267Z,18.97
2019-02-08T12:53:57.982Z,19.23
2019-02-08T12:56:29.573Z,16.80
2019-02-08T12:59:01.298Z,20.50
2019-02-08T13:01:37.728Z,19.90
2019-02-08T13:04:06.410Z,21.53
2019-02-08T13:06:38.090Z,18.30
2019-02-08T13:09:11.106Z,15.67
2019-02-08T13:11:42.686Z,24.37
2019-02-08T13:14:14.341Z,15.20
2019-02-08T13:16:45.930Z,19.70
2019-02-08T13:19:17.550Z,17.07
2019-02-08T13:21:49.146Z,22.13
2019-02-08T13:24:20.726Z,21.53
2019-02-08T13:26:53.060Z,16.33
2019-02-08T13:29:24.939Z,18.07
2019-02-08T13:31:56.541Z,16.20
2019-02-08T13:34:41.097Z,18.17
2019-02-08T13:37:12.675Z,20.03
2019-02-08T13:39:44.748Z,16.00
2019-02-08T13:42:19.415Z,19.50
2019-02-08T13:44:51.307Z,20.20
2019-02-08T13:47:23.993Z,18.90
2019-02-08T13:49:55.608Z,15.87
2019-02-08T13:52:27.338Z,15.37
2019-02-08T13:54:59.396Z,20.67
2019-02-08T13:57:30.993Z,16.47
2019-02-08T14:00:03.486Z,15.37
2019-02-08T14:02:35.134Z,14.73
2019-02-08T14:05:08.428Z,17.77
2019-02-08T14:07:40.499Z,23.20
2019-02-08T14:10:20.865Z,16.43
2019-02-08T14:12:52.859Z,15.40
2019-02-08T14:15:26.206Z,19.00
2019-02-08T14:17:57.880Z,19.87
2019-02-08T14:20:30.003Z,14.13
2019-02-08T14:23:07.277Z,13.07
2019-02-08T14:25:41.686Z,13.80
2019-02-08T14:28:13.381Z,15.93
2019-02-08T14:30:45.058Z,18.93
2019-02-08T14:33:16.752Z,14.47
2019-02-08T14:35:48.509Z,12.03
2019-02-08T14:38:20.829Z,14.00
2019-02-08T14:40:52.419Z,14.37
2019-02-08T14:43:25.723Z,19.37
2019-02-08T14:45:57.426Z,18.20
2019-02-08T14:48:29.165Z,16.80
2019-02-08T14:51:00.822Z,15.40
2019-02-08T14:53:32.553Z,21.90
2019-02-08T14:56:04.196Z,21.20
2019-02-08T14:58:35.841Z,20.70
2019-02-08T15:01:07.522Z,17.57
2019-02-08T15:03:39.098Z,17.10
2019-02-08T15:06:10.899Z,19.33
2019-02-08T15:08:42.567Z,18.43
2019-02-08T15:11:14.173Z,21.07
2019-02-08T15:13:46.391Z,17.23
2019-02-08T15:16:19.372Z,18.63
2019-02-08T15:18:51.175Z,17.73
2019-02-08T15:21:22.852Z,14.33
2019-02-08T15:23:54.455Z,20.73
2019-02-08T15:26:26.044Z,16.57
2019-02-08T15:28:57.769Z,16.17
2019-02-08T15:31:29.437Z,25.50
2019-02-08T15:34:01.078Z,28.77
2019-02-08T15:36:32.776Z,16.43
2019-02-08T15:39:06.137Z,23.87
2019-02-08T15:41:37.782Z,18.40
2019-02-08T15:44:09.364Z,15.83
2019-02-08T15:46:41.146Z,22.07
2019-02-08T15:49:12.823Z,20.47
2019-02-08T15:51:45.316Z,21.40
2019-02-08T15:54:19.359Z,28.83
2019-02-08T15:56:51.972Z,25.50
2019-02-08T15:59:23.679Z,22.73
2019-02-08T16:01:55.309Z,20.83
2019-02-08T16:04:26.995Z,29.07
2019-02-08T16:06:58.703Z,21.63
2019-02-08T16:09:30.405Z,23.93
2019-02-08T16:12:02.075Z,26.77
2019-02-08T16:14:33.755Z,28.53
2019-02-08T16:17:06.152Z,31.90
2019-02-08T16:19:37.731Z,23.43
2019-02-08T16:22:09.509Z,26.43
2019-02-08T16:24:41.186Z,26.53
2019-02-08T16:27:12.995Z,32.93
2019-02-08T16:29:45.241Z,42.80
2019-02-08T16:32:16.821Z,33.17
2019-02-08T16:34:49.315Z,35.83
2019-02-08T16:37:21.096Z,37.90
2019-02-08T16:39:52.881Z,31.37
2019-02-08T16:42:24.534Z,38.33
2019-02-08T16:44:57.939Z,37.07
2019-02-08T16:47:29.604Z,42.03
2019-02-08T16:50:01.181Z,40.67
2019-02-08T16:52:32.796Z,40.37
2019-02-08T16:55:07.094Z,30.70
2019-02-08T16:57:38.754Z,39.13
2019-02-08T17:00:29.842Z,42.90
2019-02-08T17:03:05.145Z,43.63
2019-02-08T17:05:36.942Z,38.70
2019-02-08T17:08:08.553Z,32.97
2019-02-08T17:10:40.605Z,37.60
2019-02-08T17:13:13.645Z,25.70
2019-02-08T17:15:45.283Z,32.67
2019-02-08T17:18:17.321Z,25.80
2019-02-08T17:20:50.607Z,29.10
2019-02-08T17:23:22.858Z,32.03
2019-02-08T17:25:54.513Z,24.20
2019-02-08T17:28:26.206Z,23.97
2019-02-08T17:30:57.882Z,29.50
2019-02-08T17:33:29.502Z,33.77
2019-02-08T17:36:01.066Z,28.00
2019-02-08T17:38:33.830Z,28.20
2019-02-08T17:41:05.514Z,25.93
2019-02-08T17:43:37.456Z,24.47
2019-02-08T17:46:13.532Z,27.30
2019-02-08T17:49:03.483Z,28.27
2019-02-08T17:51:38.452Z,30.80
2019-02-08T17:54:13.317Z,37.37
2019-02-08T17:56:45.492Z,30.83
2019-02-08T17:59:17.123Z,28.90
2019-02-08T18:01:48.739Z,31.50
2019-02-08T18:04:20.340Z,30.67
2019-02-08T18:06:52.455Z,31.83
2019-02-08T18:09:25.136Z,34.63
2019-02-08T18:11:57.031Z,30.03
2019-02-08T18:14:28.767Z,36.67
2019-02-08T18:17:00.339Z,34.43
2019-02-08T18:19:32.005Z,39.17
2019-02-08T18:22:03.826Z,38.30
2019-02-08T18:24:35.428Z,32.33
2019-02-08T18:27:07.128Z,36.73
2019-02-08T18:29:38.800Z,30.20
2019-02-08T18:32:10.579Z,32.23
2019-02-08T18:34:42.332Z,35.77
2019-02-08T18:37:13.930Z,40.77
2019-02-08T18:39:45.598Z,39.80
2019-02-08T18:42:17.206Z,35.80
2019-02-08T18:44:48.912Z,40.40
2019-02-08T18:47:20.490Z,38.40
2019-02-08T18:49:52.162Z,31.63
2019-02-08T18:52:23.832Z,42.83
2019-02-08T18:54:56.378Z,36.37
2019-02-08T18:57:27.975Z,38.97
2019-02-08T18:59:59.581Z,42.13
2019-02-08T19:02:31.247Z,42.33
2019-02-08T19:05:02.868Z,37.93
2019-02-08T19:07:34.937Z,40.17
2019-02-08T19:10:11.726Z,39.83
2019-02-08T19:12:43.343Z,47.13
2019-02-08T19:15:21.769Z,36.23
2019-02-08T19:17:53.423Z,46.43
2019-02-08T19:20:28.321Z,49.53
2019-02-08T19:23:00.025Z,42.60
2019-02-08T19:25:37.528Z,44.93
2019-02-08T19:28:11.338Z,50.10
2019-02-08T19:30:45.487Z,40.23
2019-02-08T19:33:17.217Z,46.60
2019-02-08T19:35:50.924Z,46.40
2019-02-08T19:38:23.273Z,51.33
2019-02-08T19:40:54.845Z,44.37
2019-02-08T19:43:48.107Z,38.70
2019-02-08T19:46:43.536Z,43.33
2019-02-08T19:49:18.119Z,34.53
2019-02-08T19:51:54.787Z,38.33
2019-02-08T19:54:27.491Z,37.50
2019-02-08T19:56:59.221Z,38.10
2019-02-08T19:59:30.888Z,45.80
2019-02-08T20:02:02.489Z,35.57
2019-02-08T20:04:34.069Z,41.97
2019-02-08T20:07:05.816Z,35.47
2019-02-08T20:09:37.557Z,35.63
2019-02-08T20:12:09.191Z,34.53
2019-02-08T20:14:40.751Z,32.03
2019-02-08T20:17:12.352Z,34.83
2019-02-08T20:19:43.951Z,35.27
2019-02-08T20:22:15.534Z,32.50
2019-02-08T20:24:47.185Z,31.50
2019-02-08T20:27:18.849Z,33.40
2019-02-08T20:29:50.456Z,33.10
2019-02-08T20:32:22.032Z,30.83
2019-02-08T20:34:53.810Z,32.10
2019-02-08T20:37:25.644Z,36.33
2019-02-08T20:39:57.596Z,31.53
2019-02-08T20:42:29.196Z,36.27
2019-02-08T20:45:01.119Z,34.87
2019-02-08T20:47:32.791Z,36.43
2019-02-08T20:50:08.339Z,33.53
2019-02-08T20:52:40.251Z,31.43
2019-02-08T20:55:12.600Z,29.90
2019-02-08T20:57:44.485Z,33.33
2019-02-08T21:00:27.239Z,31.70
2019-02-08T21:05:46.240Z,27.47
2019-02-08T21:08:18.527Z,27.67
2019-02-08T21:10:50.287Z,35.97
2019-02-08T21:13:22.030Z,31.17
2019-02-08T21:15:53.893Z,37.60
2019-02-08T21:18:39.761Z,27.17
2019-02-08T21:21:14.676Z,35.83
2019-02-08T21:23:46.584Z,35.77
2019-02-08T21:26:18.348Z,31.37
2019-02-08T21:28:57.993Z,37.03
2019-02-08T21:31:26.184Z,35.97
2019-02-08T21:33:57.774Z,35.83
2019-02-08T21:36:39.492Z,44.03
2019-02-08T21:39:18.091Z,31.17
2019-02-08T21:41:54.134Z,40.80
2019-02-08T21:47:21.782Z,34.13
2019-02-08T21:49:56.326Z,36.10
2019-02-08T21:52:33.537Z,35.17
2019-02-08T21:55:13.764Z,33.03
2019-02-08T21:57:50.594Z,42.37
2019-02-08T22:00:31.242Z,44.50
2019-02-08T22:03:12.860Z,52.17
2019-02-08T22:05:58.159Z,49.80
2019-02-08T22:08:30.269Z,65.47
2019-02-08T22:11:01.937Z,54.93
2019-02-08T22:13:33.677Z,54.63
2019-02-08T22:16:05.522Z,44.20
2019-02-08T22:18:37.234Z,52.87
2019-02-08T22:21:08.886Z,39.83
2019-02-08T22:23:40.648Z,43.70
2019-02-08T22:26:12.306Z,48.33
2019-02-08T22:28:45.766Z,40.20
2019-02-08T22:31:18.179Z,41.73
2019-02-08T22:33:49.980Z,35.83
2019-02-08T22:36:21.632Z,36.93
2019-02-08T22:38:53.372Z,42.10
2019-02-08T22:41:24.970Z,38.87
2019-02-08T22:43:56.600Z,36.03
2019-02-08T22:46:28.281Z,30.93
2019-02-08T22:48:59.849Z,36.53
2019-02-08T22:51:32.204Z,38.37
2019-02-08T22:54:04.005Z,37.77
2019-02-08T22:56:35.719Z,31.33
2019-02-08T22:59:07.397Z,37.63
2019-02-08T23:01:39.384Z,30.50
2019-02-08T23:04:11.560Z,36.47
2019-02-08T23:06:45.032Z,35.57
2019-02-08T23:09:23.243Z,28.73
2019-02-08T23:11:55.887Z,36.23
2019-02-08T23:14:27.520Z,35.57
2019-02-08T23:16:59.870Z,51.07
2019-02-08T23:19:31.536Z,31.87
2019-02-08T23:22:03.185Z,45.40
2019-02-08T23:24:34.847Z,42.50
2019-02-08T23:27:06.592Z,42.50
2019-02-08T23:29:39.433Z,33.17
2019-02-08T23:32:11.070Z,36.97
2019-02-08T23:34:42.653Z,39.60
2019-02-08T23:37:14.329Z,26.57
2019-02-08T23:39:45.934Z,33.57
2019-02-08T23:42:18.679Z,27.47
2019-02-08T23:44:50.328Z,35.40
2019-02-08T23:47:24.829Z,39.03
2019-02-08T23:49:59.878Z,30.63
2019-02-08T23:52:31.634Z,38.97
2019-02-08T23:55:03.287Z,33.30
2019-02-08T23:57:34.979Z,36.37
